createdAt,value
2022-09-14T00:00:35.602Z,1.67
2022-09-14T00:03:37.906Z,1.90
2022-09-14T00:06:40.415Z,1.80
2022-09-14T00:09:42.331Z,1.52
2022-09-14T00:12:44.154Z,1.58
2022-09-14T00:15:46.343Z,1.42
2022-09-14T00:18:52.697Z,1.85
2022-09-14T00:21:57.207Z,1.83
2022-09-14T00:24:59.199Z,2.13
2022-09-14T00:28:01.259Z,1.55
2022-09-14T00:31:04.552Z,1.60
2022-09-14T00:34:09.184Z,1.73
2022-09-14T00:37:11.561Z,1.90
2022-09-14T00:40:14.528Z,1.85
2022-09-14T00:43:16.614Z,1.70
2022-09-14T00:46:18.663Z,1.55
2022-09-14T00:49:22.113Z,1.70
2022-09-14T00:52:27.110Z,1.70
2022-09-14T00:55:29.184Z,1.60
2022-09-14T00:58:31.348Z,2.20
2022-09-14T01:01:33.179Z,2.15
2022-09-14T01:04:35.536Z,1.83
2022-09-14T01:07:40.245Z,1.35
2022-09-14T01:10:52.947Z,2.15
2022-09-14T01:14:08.127Z,1.42
2022-09-14T01:17:18.415Z,1.90
2022-09-14T01:20:32.452Z,1.30
2022-09-14T01:23:49.752Z,1.63
2022-09-14T01:26:59.874Z,1.40
2022-09-14T01:30:14.261Z,1.50
2022-09-14T01:33:21.078Z,1.77
2022-09-14T01:36:23.568Z,2.10
2022-09-14T01:39:27.422Z,1.50
2022-09-14T01:42:29.522Z,1.70
2022-09-14T01:45:34.958Z,1.70
2022-09-14T01:48:46.461Z,2.00
2022-09-14T01:51:51.017Z,1.67
2022-09-14T01:54:58.122Z,2.38
2022-09-14T01:58:09.448Z,1.70
2022-09-14T02:01:17.365Z,2.03
2022-09-14T02:04:26.284Z,1.83
2022-09-14T02:07:28.174Z,1.75
2022-09-14T02:10:30.413Z,1.40
2022-09-14T02:13:33.156Z,1.58
2022-09-14T02:16:35.030Z,1.38
2022-09-14T02:19:42.050Z,1.20
2022-09-14T02:25:47.111Z,1.73
2022-09-14T02:28:49.343Z,1.75
2022-09-14T02:32:07.538Z,1.42
2022-09-14T02:35:10.210Z,1.67
2022-09-14T02:38:46.049Z,1.30
2022-09-14T02:42:29.669Z,1.52
2022-09-14T02:45:50.807Z,1.48
2022-09-14T02:49:08.672Z,1.83
2022-09-14T02:52:23.699Z,1.77
2022-09-14T02:55:30.088Z,1.98
2022-09-14T02:58:36.974Z,1.67
2022-09-14T03:01:38.897Z,1.00
2022-09-14T03:04:41.329Z,1.90
2022-09-14T03:07:43.655Z,2.00
2022-09-14T03:10:45.471Z,1.30
2022-09-14T03:13:47.521Z,1.88
2022-09-14T03:16:49.432Z,1.92
2022-09-14T03:19:51.353Z,1.40
2022-09-14T03:22:53.433Z,1.50
2022-09-14T03:25:55.542Z,1.50
2022-09-14T03:28:58.868Z,1.45
2022-09-14T03:32:00.648Z,1.23
2022-09-14T03:35:02.588Z,1.52
2022-09-14T03:38:04.899Z,1.60
2022-09-14T03:41:10.124Z,1.80
2022-09-14T03:44:12.439Z,1.65
2022-09-14T03:47:14.367Z,1.73
2022-09-14T03:50:18.245Z,1.85
2022-09-14T03:53:20.133Z,1.60
2022-09-14T03:56:23.615Z,1.40
2022-09-14T03:59:25.639Z,1.27
2022-09-14T04:02:28.824Z,1.42
2022-09-14T04:05:30.977Z,2.25
2022-09-14T04:08:41.415Z,2.00
2022-09-14T04:11:43.200Z,1.60
2022-09-14T04:14:45.757Z,1.90
2022-09-14T04:17:47.993Z,1.83
2022-09-14T04:21:05.727Z,1.70
2022-09-14T04:24:15.548Z,1.17
2022-09-14T04:27:18.250Z,1.83
2022-09-14T04:30:20.299Z,1.73
2022-09-14T04:33:22.332Z,1.50
2022-09-14T04:36:28.601Z,1.80
2022-09-14T04:39:30.551Z,1.70
2022-09-14T04:42:32.976Z,1.58
2022-09-14T04:45:35.691Z,1.70
2022-09-14T04:48:37.978Z,1.45
2022-09-14T04:51:39.972Z,1.52
2022-09-14T04:54:42.237Z,1.70
2022-09-14T04:57:44.375Z,1.63
2022-09-14T05:00:46.914Z,1.75
2022-09-14T05:03:49.763Z,1.30
2022-09-14T05:06:52.047Z,1.55
2022-09-14T05:09:57.324Z,1.30
2022-09-14T05:12:59.422Z,1.30
2022-09-14T05:16:08.911Z,1.10
2022-09-14T05:19:15.567Z,1.92
2022-09-14T05:22:17.623Z,1.80
2022-09-14T05:25:19.591Z,1.85
2022-09-14T05:28:21.781Z,1.48
2022-09-14T05:31:25.280Z,1.50
2022-09-14T05:34:27.467Z,1.35
2022-09-14T05:37:29.807Z,0.90
2022-09-14T05:40:32.005Z,2.00
2022-09-14T05:43:34.591Z,1.30
2022-09-14T05:46:36.925Z,1.30
2022-09-14T05:49:39.552Z,1.58
2022-09-14T05:52:41.659Z,1.55
2022-09-14T05:55:44.566Z,1.83
2022-09-14T05:58:47.386Z,1.70
2022-09-14T06:01:49.163Z,1.60
2022-09-14T06:04:51.386Z,1.55
2022-09-14T06:07:54.287Z,1.13
2022-09-14T06:10:56.362Z,1.55
2022-09-14T06:13:59.191Z,1.33
2022-09-14T06:17:01.615Z,1.55
2022-09-14T06:20:05.338Z,2.63
2022-09-14T06:23:07.598Z,2.30
2022-09-14T06:26:10.082Z,2.55
2022-09-14T06:29:12.041Z,3.30
2022-09-14T06:32:14.065Z,3.55
2022-09-14T06:35:16.549Z,4.20
2022-09-14T06:38:18.671Z,3.78
2022-09-14T06:41:24.037Z,3.50
2022-09-14T06:44:26.408Z,3.85
2022-09-14T06:47:32.597Z,4.35
2022-09-14T06:50:34.968Z,6.75
2022-09-14T06:53:36.998Z,3.20
2022-09-14T06:56:41.321Z,2.92
2022-09-14T06:59:43.767Z,2.65
2022-09-14T07:02:45.891Z,2.15
2022-09-14T07:05:48.159Z,2.10
2022-09-14T07:08:51.443Z,2.10
2022-09-14T07:11:54.821Z,2.72
2022-09-14T07:14:56.819Z,2.65
2022-09-14T07:17:59.465Z,2.90
2022-09-14T07:21:22.198Z,3.13
2022-09-14T07:24:24.921Z,2.13
2022-09-14T07:27:27.058Z,2.42
2022-09-14T07:30:28.882Z,2.75
2022-09-14T07:33:31.377Z,2.22
2022-09-14T07:36:35.751Z,2.25
2022-09-14T07:39:37.655Z,2.17
2022-09-14T07:42:39.582Z,2.47
2022-09-14T07:45:42.205Z,2.20
2022-09-14T07:48:44.576Z,1.67
2022-09-14T07:51:46.598Z,1.45
2022-09-14T07:54:48.832Z,2.08
2022-09-14T07:57:56.431Z,1.77
2022-09-14T08:01:04.953Z,1.20
2022-09-14T08:04:08.243Z,2.95
2022-09-14T08:07:10.433Z,1.75
2022-09-14T08:10:12.616Z,1.95
2022-09-14T08:13:15.518Z,2.10
2022-09-14T08:16:19.442Z,1.75
2022-09-14T08:19:22.029Z,1.88
2022-09-14T08:22:23.793Z,1.65
2022-09-14T08:25:26.735Z,2.03
2022-09-14T08:28:28.701Z,2.28
2022-09-14T08:31:30.987Z,1.80
2022-09-14T08:34:33.567Z,2.03
2022-09-14T08:37:40.767Z,1.75
2022-09-14T08:40:45.404Z,1.83
2022-09-14T08:43:47.447Z,1.80
2022-09-14T08:46:54.193Z,1.40
2022-09-14T08:50:11.355Z,1.15
2022-09-14T08:56:42.583Z,1.42
2022-09-14T09:00:09.045Z,2.20
2022-09-14T09:03:21.323Z,2.40
2022-09-14T09:06:35.424Z,3.00
2022-09-14T09:09:45.825Z,3.08
2022-09-14T09:12:52.136Z,2.95
2022-09-14T09:15:56.062Z,3.20
2022-09-14T09:19:07.920Z,2.92
2022-09-14T09:22:15.294Z,2.58
2022-09-14T09:25:23.667Z,2.40
2022-09-14T09:28:27.348Z,1.45
2022-09-14T09:31:38.645Z,2.00
2022-09-14T09:35:21.303Z,1.58
2022-09-14T09:38:35.685Z,1.70
2022-09-14T09:41:46.200Z,1.58
2022-09-14T09:45:02.443Z,2.03
2022-09-14T09:51:32.795Z,1.73
2022-09-14T09:54:34.808Z,1.60
2022-09-14T09:57:37.330Z,1.75
2022-09-14T10:00:56.177Z,1.83
2022-09-14T10:04:10.431Z,1.70
2022-09-14T10:07:22.462Z,1.55
2022-09-14T10:10:40.069Z,1.92
2022-09-14T10:13:47.221Z,1.50
2022-09-14T10:16:52.598Z,1.48
2022-09-14T10:19:55.357Z,1.77
2022-09-14T10:23:18.970Z,1.83
2022-09-14T10:26:24.938Z,1.40
2022-09-14T10:29:38.911Z,1.40
2022-09-14T10:32:43.251Z,1.40
2022-09-14T10:35:57.068Z,1.35
2022-09-14T10:38:59.546Z,1.67
2022-09-14T10:42:05.058Z,2.05
2022-09-14T10:45:30.293Z,1.77
2022-09-14T10:48:32.415Z,2.25
2022-09-14T10:51:42.737Z,2.65
2022-09-14T10:54:59.909Z,2.45
2022-09-14T10:58:17.309Z,2.25
2022-09-14T11:01:40.873Z,2.08
2022-09-14T11:04:43.364Z,1.95
2022-09-14T11:07:52.877Z,2.40
2022-09-14T11:11:16.799Z,1.90
2022-09-14T11:14:31.547Z,2.20
2022-09-14T11:18:02.531Z,2.90
2022-09-14T11:21:40.026Z,3.83
2022-09-14T11:24:54.051Z,2.90
2022-09-14T11:28:02.236Z,1.70
2022-09-14T11:31:15.525Z,1.70
2022-09-14T11:34:55.063Z,1.60
2022-09-14T11:38:03.691Z,1.85
2022-09-14T11:41:18.464Z,1.55
2022-09-14T11:44:31.381Z,2.10
2022-09-14T11:47:39.118Z,1.60
2022-09-14T11:50:43.120Z,2.00
2022-09-14T11:53:46.780Z,1.25
2022-09-14T11:56:51.026Z,1.92
2022-09-14T11:59:55.997Z,1.92
2022-09-14T12:03:01.183Z,1.98
2022-09-14T12:06:34.311Z,1.80
2022-09-14T12:09:41.204Z,2.25
2022-09-14T12:12:55.470Z,2.35
2022-09-14T12:19:12.634Z,2.10
2022-09-14T12:22:33.977Z,3.22
2022-09-14T12:25:38.422Z,2.72
2022-09-14T12:28:52.994Z,2.88
2022-09-14T12:31:55.144Z,2.65
2022-09-14T12:35:36.124Z,2.20
2022-09-14T12:38:38.446Z,2.30
2022-09-14T12:41:40.372Z,2.55
2022-09-14T12:44:44.178Z,2.72
2022-09-14T12:47:51.822Z,2.17
2022-09-14T12:50:55.100Z,1.95
2022-09-14T12:54:09.699Z,2.45
2022-09-14T12:57:18.143Z,2.40
2022-09-14T13:00:20.958Z,2.38
2022-09-14T13:03:49.891Z,2.78
2022-09-14T13:06:52.898Z,2.72
2022-09-14T13:09:56.411Z,3.00
2022-09-14T13:13:01.194Z,3.03
2022-09-14T13:16:06.423Z,2.63
2022-09-14T13:19:20.212Z,2.15
2022-09-14T13:22:28.029Z,2.40
2022-09-14T13:25:33.704Z,2.60
2022-09-14T13:28:36.843Z,3.08
2022-09-14T13:31:40.127Z,3.25
2022-09-14T13:34:42.577Z,2.75
2022-09-14T13:37:48.326Z,3.70
2022-09-14T13:40:53.208Z,3.50
2022-09-14T13:43:57.408Z,3.83
2022-09-14T13:47:03.911Z,3.65
2022-09-14T13:50:07.756Z,3.60
2022-09-14T13:53:38.180Z,3.80
2022-09-14T13:56:40.253Z,3.17
2022-09-14T14:00:09.541Z,4.47
2022-09-14T14:03:40.358Z,4.40
2022-09-14T14:06:42.808Z,3.95
2022-09-14T14:09:51.008Z,3.85
2022-09-14T14:12:53.385Z,4.43
2022-09-14T14:16:17.704Z,4.30
2022-09-14T14:19:30.719Z,3.72
2022-09-14T14:22:39.027Z,3.05
2022-09-14T14:25:46.368Z,3.63
2022-09-14T14:28:48.980Z,4.88
2022-09-14T14:31:51.495Z,5.32
2022-09-14T14:34:53.951Z,5.35
2022-09-14T14:37:56.860Z,5.47
2022-09-14T14:40:59.673Z,5.40
2022-09-14T14:44:02.224Z,6.85
2022-09-14T14:47:05.748Z,5.68
2022-09-14T14:50:19.309Z,7.10
2022-09-14T14:53:25.754Z,6.63
2022-09-14T14:56:28.372Z,5.85
2022-09-14T14:59:31.226Z,5.15
2022-09-14T15:02:33.197Z,5.50
2022-09-14T15:05:35.631Z,5.90
2022-09-14T15:08:38.335Z,5.80
2022-09-14T15:11:43.268Z,5.43
2022-09-14T15:14:45.553Z,4.47
2022-09-14T15:17:48.218Z,4.38
2022-09-14T15:20:50.509Z,4.65
2022-09-14T15:23:52.802Z,7.93
2022-09-14T15:26:55.283Z,5.72
2022-09-14T15:29:58.450Z,4.68
2022-09-14T15:33:00.758Z,4.90
2022-09-14T15:36:03.696Z,4.30
2022-09-14T15:39:07.433Z,4.82
2022-09-14T15:42:09.771Z,6.00
2022-09-14T15:45:12.214Z,6.85
2022-09-14T15:48:16.046Z,6.28
2022-09-14T15:51:20.165Z,5.88
2022-09-14T15:54:23.758Z,5.70
2022-09-14T15:57:25.942Z,6.10
2022-09-14T16:00:28.323Z,4.78
2022-09-14T16:03:30.299Z,6.25
2022-09-14T16:06:33.099Z,7.10
2022-09-14T16:09:35.791Z,8.25
2022-09-14T16:12:37.845Z,6.53
2022-09-14T16:15:39.899Z,8.43
2022-09-14T16:18:42.678Z,8.23
2022-09-14T16:21:45.067Z,8.25
2022-09-14T16:24:47.897Z,7.28
2022-09-14T16:27:50.464Z,7.00
2022-09-14T16:30:52.530Z,7.45
2022-09-14T16:33:57.406Z,6.57
2022-09-14T16:36:59.607Z,6.93
2022-09-14T16:40:02.924Z,4.85
2022-09-14T16:43:05.795Z,5.90
2022-09-14T16:46:10.774Z,5.05
2022-09-14T16:49:13.233Z,4.80
2022-09-14T16:52:15.873Z,4.72
2022-09-14T16:55:18.231Z,5.03
2022-09-14T16:58:20.520Z,5.03
2022-09-14T17:01:28.840Z,4.20
2022-09-14T17:04:31.150Z,4.30
2022-09-14T17:07:33.182Z,4.90
2022-09-14T17:10:36.690Z,4.75
2022-09-14T17:13:39.048Z,4.72
2022-09-14T17:16:41.442Z,8.50
2022-09-14T17:19:45.382Z,5.85
2022-09-14T17:22:48.351Z,5.22
2022-09-14T17:25:51.307Z,5.07
2022-09-14T17:28:57.167Z,5.03
2022-09-14T17:31:59.824Z,4.10
2022-09-14T17:35:03.237Z,3.97
2022-09-14T17:38:06.761Z,5.40
2022-09-14T17:41:13.139Z,4.32
2022-09-14T17:44:16.802Z,4.53
2022-09-14T17:47:19.199Z,4.57
2022-09-14T17:50:22.101Z,4.95
2022-09-14T17:53:24.901Z,4.75
2022-09-14T17:56:28.911Z,4.57
2022-09-14T17:59:31.055Z,5.40
2022-09-14T18:02:33.520Z,3.83
2022-09-14T18:05:36.169Z,5.88
2022-09-14T18:08:39.500Z,8.73
2022-09-14T18:11:42.928Z,6.30
2022-09-14T18:14:45.088Z,5.95
2022-09-14T18:17:47.323Z,5.95
2022-09-14T18:20:49.635Z,5.57
2022-09-14T18:23:52.941Z,5.95
2022-09-14T18:26:55.061Z,5.45
2022-09-14T18:29:58.028Z,4.78
2022-09-14T18:33:00.525Z,4.88
2022-09-14T18:36:04.596Z,5.90
2022-09-14T18:39:06.879Z,7.43
2022-09-14T18:42:09.281Z,9.48
2022-09-14T18:45:11.664Z,6.65
2022-09-14T18:48:14.437Z,5.72
2022-09-14T18:51:22.648Z,5.38
2022-09-14T18:54:27.843Z,3.88
2022-09-14T18:57:30.885Z,6.88
2022-09-14T19:00:35.359Z,5.15
2022-09-14T19:03:39.887Z,4.50
2022-09-14T19:06:44.314Z,4.35
2022-09-14T19:09:47.043Z,4.10
2022-09-14T19:12:49.373Z,4.20
2022-09-14T19:15:51.373Z,5.22
2022-09-14T19:18:53.936Z,6.05
2022-09-14T19:21:56.700Z,5.65
2022-09-14T19:25:00.009Z,5.80
2022-09-14T19:28:02.785Z,5.45
2022-09-14T19:31:14.109Z,4.72
2022-09-14T19:34:20.491Z,5.45
2022-09-14T19:37:25.058Z,4.15
2022-09-14T19:40:30.679Z,5.25
2022-09-14T19:43:34.747Z,5.45
2022-09-14T19:46:39.823Z,5.43
2022-09-14T19:49:42.577Z,4.28
2022-09-14T19:52:46.341Z,6.28
2022-09-14T19:55:48.552Z,5.90
2022-09-14T19:58:52.692Z,5.53
2022-09-14T20:01:54.885Z,5.20
2022-09-14T20:04:57.617Z,5.32
2022-09-14T20:07:59.694Z,5.28
2022-09-14T20:11:06.189Z,5.40
2022-09-14T20:14:12.458Z,5.15
2022-09-14T20:17:14.678Z,4.47
2022-09-14T20:20:17.345Z,4.03
2022-09-14T20:23:19.479Z,5.10
2022-09-14T20:26:21.750Z,5.72
2022-09-14T20:29:25.118Z,4.88
2022-09-14T20:32:27.175Z,4.25
2022-09-14T20:35:29.941Z,6.25
2022-09-14T20:38:32.440Z,4.72
2022-09-14T20:41:35.698Z,5.35
2022-09-14T20:44:37.781Z,4.30
2022-09-14T20:47:39.697Z,5.97
2022-09-14T20:50:51.858Z,6.50
2022-09-14T20:53:56.426Z,6.28
2022-09-14T20:57:03.512Z,7.53
2022-09-14T21:00:07.401Z,7.30
2022-09-14T21:03:11.040Z,6.03
2022-09-14T21:06:15.652Z,5.65
2022-09-14T21:09:18.535Z,7.60
2022-09-14T21:12:20.582Z,7.15
2022-09-14T21:15:22.686Z,7.32
2022-09-14T21:18:25.047Z,7.78
2022-09-14T21:21:27.551Z,7.68
2022-09-14T21:24:31.267Z,7.70
2022-09-14T21:27:33.208Z,7.82
2022-09-14T21:30:35.551Z,7.90
2022-09-14T21:33:40.676Z,7.80
2022-09-14T21:36:47.036Z,6.75
2022-09-14T21:39:48.820Z,5.20
2022-09-14T21:42:50.761Z,7.57
2022-09-14T21:45:53.319Z,6.50
2022-09-14T21:48:56.144Z,6.45
2022-09-14T21:51:58.098Z,5.63
2022-09-14T21:54:59.995Z,6.28
2022-09-14T21:58:01.978Z,6.82
2022-09-14T22:01:03.910Z,8.70
2022-09-14T22:04:07.015Z,11.27
2022-09-14T22:07:08.910Z,9.55
2022-09-14T22:10:11.046Z,7.57
2022-09-14T22:13:12.871Z,5.88
2022-09-14T22:16:16.693Z,5.65
2022-09-14T22:19:22.058Z,8.25
2022-09-14T22:22:23.946Z,8.75
2022-09-14T22:25:25.997Z,8.07
2022-09-14T22:28:28.428Z,7.47
2022-09-14T22:31:30.224Z,8.48
2022-09-14T22:34:32.652Z,7.35
2022-09-14T22:37:34.467Z,5.85
2022-09-14T22:40:36.301Z,7.35
2022-09-14T22:43:38.887Z,5.57
2022-09-14T22:46:40.697Z,5.45
2022-09-14T22:49:42.548Z,6.00
2022-09-14T22:52:44.321Z,5.68
2022-09-14T22:55:46.779Z,5.78
2022-09-14T22:58:49.236Z,4.18
2022-09-14T23:01:53.353Z,5.10
2022-09-14T23:04:56.341Z,4.32
2022-09-14T23:07:58.402Z,4.40
2022-09-14T23:11:07.329Z,4.75
2022-09-14T23:14:09.031Z,5.93
2022-09-14T23:17:11.022Z,4.35
2022-09-14T23:20:12.828Z,3.75
2022-09-14T23:23:14.648Z,6.32
2022-09-14T23:26:16.427Z,3.47
2022-09-14T23:29:18.343Z,5.22
2022-09-14T23:32:20.100Z,6.10
2022-09-14T23:35:21.946Z,5.50
2022-09-14T23:38:24.314Z,5.38
2022-09-14T23:41:27.019Z,4.60
2022-09-14T23:44:28.859Z,5.90
2022-09-14T23:47:30.657Z,4.65
2022-09-14T23:50:32.319Z,4.47
2022-09-14T23:53:35.179Z,4.07
2022-09-14T23:56:38.665Z,4.00
2022-09-14T23:59:40.586Z,4.50
